MT WASHINGTON (MTW)

Elevation: 920' · LOS ANGELES R basin · Operator: Los Angeles County Fire Dept

Query executed Friday at 17:15:56   clock

Provisional data, subject to change.
Select a sensor type for a plot of data.

Earlier

Date   /   Time   RAIN     TEMP     REL HUM     BAR PRE     FUEL MS     FUEL TP     WIND SP     WIND DR     PEAK WS     PEAK WD     SOLAR R     BAT VOL    
(PDT)INCHES   DEG F   %   INCHES   %   DEG F   MPH   DEG   MPH   DEG   W/M^2   VOLTS  
04/17/2014 18:00 5.00 61 74 -- 11 62 -- -- -- -- 65.00 12.6
04/17/2014 19:00 5.00 59 79 -- 12 60 -- -- -- -- 5.00 12.6
04/17/2014 20:00 5.00 58 82 -- 13 59 -- -- -- -- 0.00 12.5
04/17/2014 21:00 5.00 57 83 -- 13 58 -- -- -- -- 0.00 12.5
04/17/2014 22:00 5.00 57 84 -- 14 58 -- -- -- -- 0.00 12.5
04/17/2014 23:00 5.00 57 84 -- 14 58 -- -- -- -- 0.00 12.5
04/18/2014 00:00 5.00 58 83 -- 14 58 -- -- -- -- 0.00 12.5
04/18/2014 01:00 5.00 57 82 -- 14 58 -- -- -- -- 0.00 12.5
04/18/2014 02:00 5.00 57 81 -- 14 58 -- -- -- -- 0.00 12.4
04/18/2014 03:00 5.00 57 83 -- 14 58 -- -- -- -- 0.00 12.4
04/18/2014 04:00 5.00 57 82 -- 14 58 -- -- -- -- 0.00 12.4
04/18/2014 05:00 5.00 57 84 -- 14 57 -- -- -- -- 0.00 12.3
04/18/2014 06:00 5.00 55 92 -- 19 55 -- -- -- -- 4.00 12.3
04/18/2014 07:00 5.00 58 90 -- 18 59 -- -- -- -- 65.00 12.7
04/18/2014 08:00 5.00 62 76 -- 16 63 -- -- -- -- 147.00 13.2
04/18/2014 09:00 5.00 64 63 -- 14 67 -- -- -- -- 380.00 13.3
04/18/2014 10:00 5.00 65 59 -- 14 71 -- -- -- -- 335.00 13.6
04/18/2014 11:00 5.00 68 53 -- 13 74 -- -- -- -- 522.00 13.6
04/18/2014 12:00 5.00 69 50 -- 12 82 -- -- -- -- 531.00 13.6
04/18/2014 13:00 5.00 72 44 -- 11 87 -- -- -- -- 690.00 13.5
04/18/2014 14:00 5.00 71 53 -- 10 82 -- -- -- -- 731.00 13.5
04/18/2014 15:00 5.00 71 50 -- 10 76 -- -- -- -- 476.00 13.6
04/18/2014 16:00 5.00 68 56 -- 10 72 -- -- -- -- 425.00 13.6
04/18/2014 17:00 -- -- -- -- -- -- -- -- -- -- -- --

Later | Latest

Warning! This data is preliminary and subject to revision.

Download Data Now Download Data Now | Show MTW Map | 24 Hours MTW Data | Plot all MTW Sensors | Daily MTW Data | MTW Info